Time;durP1;ratioP1;P1;durP2;ratioP2;P2;SDS_P1;SDS_P2;PMS_P1;PMS_P2;Temp;Humidity;BMP_temperature;BMP_pressure;BME280_temperature;BME280_humidity;BME280_pressure;Samples;Min_cycle;Max_cycle;Signal;HPM_P1;HPM_P2
2022/06/04 00:01:02;;;;;;;3.15;2.95;;;;;;;17.43;100.00;101698.19;5271371;28;20551;-79
2022/06/04 00:03:32;;;;;;;3.78;3.58;;;;;;;17.38;100.00;101700.94;5272515;28;20031;-79
2022/06/04 00:06:03;;;;;;;3.88;3.58;;;;;;;17.30;100.00;101701.56;5272671;28;20401;-78
2022/06/04 00:08:33;;;;;;;5.80;3.08;;;;;;;16.98;100.00;101657.47;5268381;28;20020;-78
2022/06/04 00:16:42;;;;;;;3.67;3.55;;;;;;;17.17;100.00;101694.78;5268356;28;20059;-78
2022/06/04 00:19:12;;;;;;;3.47;3.25;;;;;;;17.14;100.00;101689.06;5269100;28;20103;-81
2022/06/04 00:21:43;;;;;;;3.83;3.63;;;;;;;17.05;100.00;101672.44;5268130;28;20028;-79
2022/06/04 00:24:13;;;;;;;2.88;2.70;;;;;;;16.87;100.00;101640.31;5268764;28;20022;-77
2022/06/04 00:26:44;;;;;;;2.30;2.20;;;;;;;17.03;100.00;101685.56;5273239;28;20138;-78
2022/06/04 00:29:14;;;;;;;2.80;2.70;;;;;;;16.95;100.00;101679.88;5268893;28;20028;-77
2022/06/04 00:31:45;;;;;;;3.50;3.30;;;;;;;16.92;100.00;101685.88;5267536;28;20027;-76
2022/06/04 00:34:15;;;;;;;3.78;3.58;;;;;;;16.86;100.00;101687.78;5267875;28;20415;-79
2022/06/04 00:36:46;;;;;;;6.10;3.58;;;;;;;16.84;100.00;101696.25;5267530;28;20032;-78
2022/06/04 00:39:16;;;;;;;2.97;2.88;;;;;;;16.82;100.00;101700.34;5267603;28;20017;-80
2022/06/04 00:42:07;;;;;;;3.13;3.03;;;;;;;16.59;100.00;101676.38;5267436;28;20049;-78
2022/06/04 00:44:59;;;;;;;3.75;3.55;;;;;;;16.76;100.00;101713.19;5266633;28;20103;-78
2022/06/04 00:47:30;;;;;;;2.95;2.78;;;;;;;15.87;100.00;101572.13;5266714;28;20024;-78
2022/06/04 00:50:00;;;;;;;2.88;2.78;;;;;;;16.47;100.00;101669.31;5266734;28;20040;-78
2022/06/04 00:52:32;;;;;;;3.70;2.95;;;;;;;16.63;100.00;101694.66;5266727;28;20047;-78
2022/06/04 00:55:06;;;;;;;2.95;2.65;;;;;;;16.51;100.00;101684.03;5266570;28;20081;-77
2022/06/04 00:58:02;;;;;;;2.90;2.78;;;;;;;16.66;100.00;101705.03;5266635;28;20020;-77
2022/06/04 01:00:43;;;;;;;6.45;3.40;;;;;;;16.62;100.00;101706.66;5267115;28;20028;-77
2022/06/04 01:03:49;;;;;;;5.20;2.88;;;;;;;16.56;100.00;101705.03;5266155;28;20103;-78
2022/06/04 01:06:49;;;;;;;3.33;3.15;;;;;;;16.53;100.00;101716.47;5268318;28;20020;-78
2022/06/04 01:09:41;;;;;;;5.47;3.03;;;;;;;16.53;100.00;101730.09;5269319;28;20028;-78
2022/06/04 01:12:33;;;;;;;2.67;2.58;;;;;;;16.46;100.00;101737.75;5271051;28;20027;-77
2022/06/04 01:15:44;;;;;;;3.50;3.30;;;;;;;16.43;100.00;101730.97;5270551;28;20028;-77
2022/06/04 01:18:36;;;;;;;3.63;3.42;;;;;;;16.39;100.00;101731.78;5270833;28;20024;-77
2022/06/04 01:21:12;;;;;;;5.45;3.28;;;;;;;16.36;100.00;101733.13;5270741;28;20024;-78
2022/06/04 01:24:23;;;;;;;4.45;3.05;;;;;;;16.29;100.00;101742.66;5270397;28;20073;-78
2022/06/04 01:27:00;;;;;;;2.65;2.55;;;;;;;16.27;100.00;101753.03;5270649;28;20107;-77
2022/06/04 01:29:36;;;;;;;3.38;3.17;;;;;;;16.25;100.00;101749.75;5270771;28;20028;-77
2022/06/04 01:32:23;;;;;;;9.18;3.75;;;;;;;16.18;100.00;101748.09;5269480;28;20031;-77
2022/06/04 01:35:12;;;;;;;4.28;3.13;;;;;;;16.15;100.00;101748.66;5270265;28;20032;-76
2022/06/04 01:37:53;;;;;;;4.22;3.92;;;;;;;16.14;100.00;101751.66;5269279;28;20489;-78
2022/06/04 01:41:08;;;;;;;4.07;3.85;;;;;;;16.06;100.00;101753.00;5270667;28;20051;-78
2022/06/04 01:43:55;;;;;;;3.05;2.95;;;;;;;16.06;100.00;101757.66;5269640;28;20028;-78
2022/06/04 01:46:37;;;;;;;3.50;3.40;;;;;;;16.03;100.00;101756.28;5270265;28;20043;-77
2022/06/04 01:49:11;;;;;;;11.40;3.03;;;;;;;15.99;100.00;101760.63;5268725;28;20031;-78
2022/06/04 01:51:43;;;;;;;3.60;3.28;;;;;;;15.96;100.00;101758.44;5268864;28;20553;-78
2022/06/04 01:54:24;;;;;;;3.28;2.97;;;;;;;15.93;100.00;101752.72;5272019;28;20024;-79
2022/06/04 01:57:01;;;;;;;2.75;2.65;;;;;;;15.89;100.00;101755.16;5268596;28;20024;-77
2022/06/04 01:59:39;;;;;;;3.70;3.50;;;;;;;15.86;100.00;101747.53;5269539;28;20461;-78
2022/06/04 02:02:26;;;;;;;3.25;3.10;;;;;;;15.84;100.00;101757.88;5270009;28;20034;-77
2022/06/04 02:05:02;;;;;;;3.15;2.90;;;;;;;15.74;100.00;101747.78;5269542;28;20020;-80
2022/06/04 02:07:40;;;;;;;5.07;3.08;;;;;;;15.74;100.00;101747.78;5269581;28;20062;-78
2022/06/04 02:10:13;;;;;;;4.35;3.63;;;;;;;15.69;100.00;101738.78;5269556;28;20607;-77
2022/06/04 02:13:17;;;;;;;3.78;3.58;;;;;;;15.67;100.00;101743.66;5269934;28;20489;-78
2022/06/04 02:15:56;;;;;;;3.80;2.85;;;;;;;15.66;100.00;101739.31;5269251;28;20386;-77
2022/06/04 02:18:26;;;;;;;3.55;3.30;;;;;;;15.51;100.00;101723.72;5268940;28;20042;-78
2022/06/04 02:20:57;;;;;;;3.58;3.38;;;;;;;15.57;100.00;101732.78;5267936;28;20028;-77
2022/06/04 02:23:29;;;;;;;3.42;3.15;;;;;;;15.53;100.00;101735.19;5267750;28;20481;-77
2022/06/04 02:26:00;;;;;;;4.72;4.45;;;;;;;15.53;100.00;101735.19;5268979;28;20032;-78
2022/06/04 02:28:30;;;;;;;3.00;2.90;;;;;;;15.51;100.00;101730.00;5268231;28;20022;-78
2022/06/04 02:31:21;;;;;;;2.90;2.80;;;;;;;15.50;100.00;101714.75;5268644;28;20107;-78
2022/06/04 02:34:22;;;;;;;4.00;3.72;;;;;;;15.40;100.00;101712.00;5269042;28;20031;-78
2022/06/04 02:37:13;;;;;;;3.47;3.22;;;;;;;15.31;100.00;101699.16;5267810;28;20115;-78
2022/06/04 02:40:05;;;;;;;3.58;3.38;;;;;;;15.35;100.00;101705.69;5268835;28;20020;-75
2022/06/04 02:42:40;;;;;;;4.15;3.85;;;;;;;15.33;100.00;101696.97;5268854;28;20043;-77
2022/06/04 02:45:30;;;;;;;4.18;3.88;;;;;;;15.28;100.00;101697.00;5268451;28;20110;-78
2022/06/04 02:48:03;;;;;;;3.60;3.15;;;;;;;15.25;100.00;101705.69;5269005;28;20028;-78
2022/06/04 02:51:06;;;;;;;4.60;3.58;;;;;;;15.17;100.00;101696.13;5268642;28;20035;-78
2022/06/04 02:53:38;;;;;;;3.25;3.08;;;;;;;15.12;100.00;101698.81;5267581;28;20119;-79
2022/06/04 02:56:16;;;;;;;3.60;3.25;;;;;;;14.90;100.00;101665.53;5271534;28;20085;-77
2022/06/04 02:58:52;;;;;;;3.53;3.33;;;;;;;15.07;100.00;101705.06;5269171;28;20115;-77
2022/06/04 03:01:23;;;;;;;4.32;4.00;;;;;;;14.94;100.00;101680.25;5268628;28;20048;-78
2022/06/04 03:03:54;;;;;;;4.72;4.28;;;;;;;14.86;100.00;101685.09;5267090;28;20024;-78
2022/06/04 03:06:28;;;;;;;6.68;2.63;;;;;;;14.88;100.00;101689.47;5268502;28;20528;-79
2022/06/04 03:09:04;;;;;;;4.13;3.92;;;;;;;14.78;100.00;101677.44;5268751;28;20393;-79
2022/06/04 03:11:42;;;;;;;3.85;3.55;;;;;;;14.68;100.00;101679.31;5272053;28;20444;-79
2022/06/04 03:14:14;;;;;;;2.95;2.85;;;;;;;14.62;100.00;101675.72;5270683;28;20105;-78
2022/06/04 03:16:47;;;;;;;3.42;3.22;;;;;;;14.57;100.00;101678.41;5268755;28;20115;-77
2022/06/04 03:19:17;;;;;;;5.65;3.30;;;;;;;14.23;100.00;101630.88;5270990;28;20024;-78
2022/06/04 03:21:48;;;;;;;3.08;2.95;;;;;;;14.43;100.00;101677.25;5268343;28;20700;-79
2022/06/04 03:24:18;;;;;;;4.07;3.88;;;;;;;14.35;100.00;101686.69;5268950;28;20111;-79
2022/06/04 03:26:48;;;;;;;3.10;3.00;;;;;;;14.31;100.00;101685.56;5268735;28;20028;-78
2022/06/04 03:29:19;;;;;;;3.58;3.38;;;;;;;14.26;100.00;101687.41;5265782;28;20385;-79
2022/06/04 03:31:50;;;;;;;3.85;3.65;;;;;;;14.24;100.00;101697.72;5268157;28;20455;-78
2022/06/04 03:34:20;;;;;;;3.53;3.22;;;;;;;13.73;100.00;101623.97;5268053;28;20024;-78
2022/06/04 03:36:51;;;;;;;3.47;3.00;;;;;;;14.17;100.00;101695.22;5269456;28;20020;-79
2022/06/04 03:39:21;;;;;;;3.25;3.15;;;;;;;13.78;100.00;101637.59;5269333;28;20020;-78
2022/06/04 03:41:52;;;;;;;3.72;3.63;;;;;;;14.08;100.00;101713.09;5268249;28;20027;-80
2022/06/04 03:44:22;;;;;;;4.72;4.43;;;;;;;13.66;100.00;101653.22;5269373;28;20156;-79
2022/06/04 03:46:53;;;;;;;4.55;3.35;;;;;;;13.98;100.00;101726.56;5268370;28;20028;-78
2022/06/04 03:49:23;;;;;;;3.22;3.13;;;;;;;13.74;100.00;101688.06;5267396;28;20020;-78
2022/06/04 03:51:53;;;;;;;4.65;4.22;;;;;;;13.97;100.00;101728.47;5266470;28;20031;-79
2022/06/04 04:00:03;;;;;;;2.65;2.55;;;;;;;13.94;100.00;101745.25;5277435;28;20505;-79
2022/06/04 04:02:34;;;;;;;4.75;4.45;;;;;;;13.92;100.00;101741.16;5275932;28;20024;-79
2022/06/04 04:05:05;;;;;;;4.05;3.75;;;;;;;13.41;100.00;101665.47;5273006;28;20473;-78
2022/06/04 04:07:36;;;;;;;4.45;4.25;;;;;;;13.83;100.00;101728.06;5270805;28;20034;-79
2022/06/04 04:10:07;;;;;;;4.22;3.88;;;;;;;13.91;100.00;101755.81;5270204;28;20032;-79
2022/06/04 04:12:39;;;;;;;3.55;3.42;;;;;;;13.92;100.00;101754.72;5272439;28;20051;-79
2022/06/04 04:15:11;;;;;;;3.78;3.58;;;;;;;13.96;100.00;101764.00;5269993;28;20083;-80
2022/06/04 04:17:42;;;;;;;3.40;3.28;;;;;;;13.97;100.00;101774.63;5270161;28;20028;-78
2022/06/04 04:20:28;;;;;;;5.10;4.63;;;;;;;13.99;100.00;101780.63;5266939;28;20043;-80
2022/06/04 04:23:00;;;;;;;4.68;4.25;;;;;;;14.03;100.00;101778.22;5270679;28;20028;-80
2022/06/04 04:25:31;;;;;;;4.38;4.18;;;;;;;13.97;100.00;101765.66;5271780;28;20048;-81
2022/06/04 04:28:02;;;;;;;3.28;2.92;;;;;;;14.05;100.00;101779.59;5248765;28;20025;-78
2022/06/04 04:30:35;;;;;;;4.53;4.20;;;;;;;14.10;100.00;101792.41;5250726;28;20070;-79
2022/06/04 04:33:06;;;;;;;4.85;4.45;;;;;;;14.12;100.00;101793.81;5250056;28;20021;-79
2022/06/04 04:35:36;;;;;;;4.65;3.78;;;;;;;14.13;100.00;101791.91;5249175;28;20413;-80
2022/06/04 04:38:07;;;;;;;3.47;3.22;;;;;;;14.15;100.00;101792.44;5248782;28;20032;-80
2022/06/04 04:40:41;;;;;;;4.68;4.38;;;;;;;14.20;100.00;101787.88;5247161;28;20013;-78
2022/06/04 04:43:12;;;;;;;5.40;5.10;;;;;;;13.96;100.00;101758.59;5250132;28;20031;-79
2022/06/04 04:45:43;;;;;;;4.72;4.53;;;;;;;14.15;100.00;101795.97;5247990;28;20028;-79
2022/06/04 04:48:14;;;;;;;3.70;3.50;;;;;;;14.14;100.00;101779.97;5261615;28;20085;-80
2022/06/04 04:50:47;;;;;;;4.65;4.40;;;;;;;14.30;100.00;101797.22;5269875;28;20440;-79
2022/06/04 04:53:19;;;;;;;5.03;4.72;;;;;;;14.31;100.00;101798.84;5268576;28;20048;-79
2022/06/04 04:55:49;;;;;;;4.80;4.55;;;;;;;14.32;100.00;101800.50;5269564;28;20035;-79
2022/06/04 04:58:20;;;;;;;4.68;4.47;;;;;;;14.37;100.00;101797.81;5271722;28;20024;-82
2022/06/04 05:00:50;;;;;;;4.18;4.00;;;;;;;14.17;100.00;101768.56;5265903;22;20124;-79
2022/06/04 05:03:21;;;;;;;4.63;4.30;;;;;;;14.09;100.00;101750.84;5240114;28;20032;-81
2022/06/04 05:06:03;;;;;;;5.07;4.68;;;;;;;14.26;100.00;101777.06;5240282;28;20025;-79
2022/06/04 05:08:34;;;;;;;4.93;4.70;;;;;;;14.31;100.00;101799.66;5258435;28;20087;-82
2022/06/04 05:11:08;;;;;;;4.32;4.03;;;;;;;14.34;100.00;101798.34;5259379;28;20062;-81
2022/06/04 05:13:39;;;;;;;3.50;3.30;;;;;;;14.17;100.00;101785.69;5256513;28;20157;-82
2022/06/04 05:16:09;;;;;;;6.30;5.70;;;;;;;14.34;100.00;101803.78;5263551;28;20047;-82
2022/06/04 05:18:40;;;;;;;4.75;4.32;;;;;;;14.36;100.00;101813.31;5258142;28;20040;-82
2022/06/04 05:21:22;;;;;;;4.53;4.13;;;;;;;14.42;100.00;101815.03;5257299;28;20069;-82
2022/06/04 05:23:54;;;;;;;4.05;3.60;;;;;;;14.37;100.00;101809.50;5258204;28;20250;-82
2022/06/04 05:26:25;;;;;;;5.43;5.13;;;;;;;14.43;100.00;101829.44;5258596;28;20643;-83
2022/06/04 05:28:56;;;;;;;5.65;5.25;;;;;;;14.40;100.00;101827.19;5258007;28;20078;-80
2022/06/04 05:31:26;;;;;;;7.18;5.70;;;;;;;14.36;100.00;101817.91;5258432;28;20028;-82
2022/06/04 05:33:57;;;;;;;5.57;5.18;;;;;;;14.10;100.00;101776.94;5258117;28;20024;-82
2022/06/04 05:36:31;;;;;;;4.95;4.57;;;;;;;14.14;100.00;101805.22;5258511;28;20028;-81
2022/06/04 05:39:03;;;;;;;5.38;4.82;;;;;;;14.28;100.00;101821.91;5258037;28;20505;-83
2022/06/04 05:41:34;;;;;;;6.70;6.25;;;;;;;14.24;100.00;101814.53;5258631;28;20032;-82
2022/06/04 05:44:05;;;;;;;7.20;6.75;;;;;;;14.29;100.00;101820.03;5258695;28;20028;-80
2022/06/04 05:46:38;;;;;;;6.93;6.43;;;;;;;14.23;100.00;101804.75;5262494;28;20024;-79
2022/06/04 05:49:11;;;;;;;6.10;5.57;;;;;;;14.26;100.00;101813.22;5264084;28;20080;-80
2022/06/04 05:51:43;;;;;;;5.20;4.88;;;;;;;14.16;100.00;101799.50;5256614;28;20025;-82
2022/06/04 05:54:14;;;;;;;10.45;7.68;;;;;;;14.20;100.00;101801.47;5261591;28;20104;-81
2022/06/04 05:56:47;;;;;;;7.00;6.32;;;;;;;14.17;100.00;101799.25;5260797;28;20040;-79
2022/06/04 05:59:22;;;;;;;6.30;5.80;;;;;;;14.32;100.00;101800.50;5260596;28;20037;-81
2022/06/04 06:01:53;;;;;;;5.68;5.28;;;;;;;14.36;100.00;101798.91;5258068;28;20080;-80
2022/06/04 06:04:26;;;;;;;7.15;6.75;;;;;;;14.35;100.00;101797.25;5268299;28;20028;-80
2022/06/04 06:06:58;;;;;;;10.07;7.45;;;;;;;14.43;100.00;101807.69;5269794;28;20016;-77
2022/06/04 06:09:28;;;;;;;5.55;5.25;;;;;;;14.33;100.00;101807.56;5271594;28;20024;-79
2022/06/04 06:11:59;;;;;;;5.63;5.32;;;;;;;14.41;100.00;101826.16;5265544;28;20092;-82
2022/06/04 06:14:30;;;;;;;5.88;5.35;;;;;;;14.37;100.00;101814.13;5262989;28;20038;-78
2022/06/04 06:17:00;;;;;;;5.85;5.32;;;;;;;14.36;100.00;101824.19;5262358;28;20107;-81
2022/06/04 06:19:31;;;;;;;7.35;6.82;;;;;;;14.30;100.00;101829.81;5262892;28;20417;-81
2022/06/04 06:22:02;;;;;;;5.72;5.40;;;;;;;14.29;100.00;101844.47;5262820;28;20283;-81
2022/06/04 06:24:32;;;;;;;8.55;5.97;;;;;;;14.34;100.00;101848.06;5262440;28;20390;-82
2022/06/04 06:27:03;;;;;;;6.03;5.72;;;;;;;14.31;100.00;101853.19;5260510;28;20021;-81
2022/06/04 06:29:34;;;;;;;6.72;6.25;;;;;;;14.40;100.00;101865.25;5261521;28;20028;-81
2022/06/04 06:32:05;;;;;;;5.82;5.38;;;;;;;14.37;100.00;101857.59;5262319;28;20077;-82
2022/06/04 06:34:35;;;;;;;9.13;7.43;;;;;;;14.34;100.00;101837.19;5261311;28;20070;-79
2022/06/04 06:37:06;;;;;;;7.80;7.30;;;;;;;14.56;100.00;101864.34;5261774;28;20080;-82
2022/06/04 06:39:36;;;;;;;6.50;6.10;;;;;;;14.42;100.00;101825.91;5261298;28;20031;-82
2022/06/04 06:42:06;;;;;;;7.20;6.65;;;;;;;14.68;100.00;101845.97;5263130;28;20488;-82
2022/06/04 06:44:37;;;;;;;8.20;6.80;;;;;;;15.03;100.00;101875.31;5262700;28;20024;-84
2022/06/04 06:47:08;;;;;;;6.32;5.78;;;;;;;15.06;100.00;101871.25;5261207;28;20107;-80
2022/06/04 06:49:39;;;;;;;6.82;6.43;;;;;;;15.07;100.00;101878.34;5253995;28;20100;-78
2022/06/04 06:52:09;;;;;;;7.30;6.88;;;;;;;15.11;100.00;101872.13;5255007;28;20031;-80
2022/06/04 06:54:40;;;;;;;7.38;6.93;;;;;;;15.13;100.00;101850.91;5254729;28;20039;-82
2022/06/04 06:57:11;;;;;;;7.47;6.88;;;;;;;15.33;100.00;101880.16;5255950;28;20051;-80
2022/06/04 06:59:43;;;;;;;11.40;6.30;;;;;;;15.32;100.00;101870.34;5255809;28;20049;-80
2022/06/04 07:02:14;;;;;;;8.63;7.07;;;;;;;15.27;100.00;101862.16;5254225;28;20020;-80
2022/06/04 07:04:44;;;;;;;8.48;7.65;;;;;;;15.46;100.00;101868.81;5254447;28;20563;-84
2022/06/04 07:07:15;;;;;;;8.48;7.28;;;;;;;15.56;100.00;101865.34;5254709;28;20028;-81
2022/06/04 07:09:45;;;;;;;6.75;6.32;;;;;;;15.66;100.00;101884.44;5257118;28;20016;-80
2022/06/04 07:12:16;;;;;;;5.80;5.40;;;;;;;15.46;100.00;101841.59;5257236;28;20107;-79
2022/06/04 07:14:46;;;;;;;8.63;7.85;;;;;;;15.80;100.00;101854.84;5255712;28;20099;-81
2022/06/04 07:17:17;;;;;;;7.30;6.65;;;;;;;15.75;100.00;101863.81;5260021;28;20474;-81
2022/06/04 07:19:47;;;;;;;12.88;5.72;;;;;;;15.83;100.00;101860.56;5260281;28;20025;-81
2022/06/04 07:22:18;;;;;;;7.40;6.93;;;;;;;15.87;100.00;101858.13;5259033;28;20036;-80
2022/06/04 07:24:48;;;;;;;12.35;6.97;;;;;;;16.03;100.00;101873.44;5260308;28;20024;-82
2022/06/04 07:27:19;;;;;;;6.82;6.38;;;;;;;15.99;100.00;101875.06;5259057;28;20031;-82
2022/06/04 07:29:49;;;;;;;6.55;6.05;;;;;;;15.94;100.00;101872.31;5260334;28;20057;-82
2022/06/04 07:32:20;;;;;;;7.90;7.30;;;;;;;15.39;100.00;101827.38;5261363;28;20048;-81
2022/06/04 07:34:51;;;;;;;7.07;6.68;;;;;;;15.57;100.00;101850.66;5259774;28;20056;-81
2022/06/04 07:37:21;;;;;;;8.93;6.95;;;;;;;15.77;100.00;101856.19;5259461;28;20039;-84
2022/06/04 07:39:53;;;;;;;6.53;6.03;;;;;;;15.71;100.00;101831.91;5260204;28;20104;-82
2022/06/04 07:42:26;;;;;;;6.90;6.28;;;;;;;15.67;100.00;101831.63;5259809;28;20088;-82
2022/06/04 07:44:57;;;;;;;6.03;5.65;;;;;;;15.73;100.00;101835.19;5259575;28;20016;-82
2022/06/04 07:47:27;;;;;;;8.48;7.88;;;;;;;15.79;100.00;101818.63;5258849;28;20025;-81
2022/06/04 07:49:58;;;;;;;9.48;8.77;;;;;;;16.43;100.00;101872.72;5259920;28;20021;-82
2022/06/04 07:52:28;;;;;;;11.45;7.90;;;;;;;16.61;100.00;101871.38;5260163;28;20024;-82
2022/06/04 07:54:59;;;;;;;9.07;8.32;;;;;;;17.00;100.00;101862.69;5259153;28;20081;-83
2022/06/04 07:57:30;;;;;;;8.60;7.78;;;;;;;17.27;100.00;101845.97;5260062;28;20051;-82
2022/06/04 08:00:01;;;;;;;9.57;7.55;;;;;;;17.68;100.00;101858.41;5259830;28;20073;-82
2022/06/04 08:02:32;;;;;;;10.52;9.05;;;;;;;17.57;100.00;101799.44;5260119;28;20099;-82
2022/06/04 08:05:03;;;;;;;9.35;8.43;;;;;;;17.97;100.00;101820.31;5259866;28;20367;-80
2022/06/04 08:07:34;;;;;;;6.65;6.25;;;;;;;18.26;100.00;101844.19;5267418;28;20031;-79
2022/06/04 08:10:08;;;;;;;8.98;7.80;;;;;;;18.45;100.00;101831.47;5261711;28;20359;-80
2022/06/04 08:12:59;;;;;;;7.68;7.03;;;;;;;18.46;100.00;101828.47;5261138;28;20024;-82
2022/06/04 08:15:30;;;;;;;8.15;6.93;;;;;;;18.52;100.00;101835.50;5259661;28;20024;-81
2022/06/04 08:18:01;;;;;;;6.65;6.25;;;;;;;18.45;100.00;101798.66;5260001;28;20056;-81
2022/06/04 08:20:31;;;;;;;8.05;7.30;;;;;;;18.70;100.00;101825.84;5259169;28;20020;-78
2022/06/04 08:23:06;;;;;;;7.18;6.65;;;;;;;19.00;100.00;101856.75;5262199;28;20024;-80
2022/06/04 08:25:42;;;;;;;7.22;6.72;;;;;;;18.73;100.00;101863.56;5261814;28;20082;-82
2022/06/04 08:28:14;;;;;;;8.48;7.88;;;;;;;18.59;100.00;101862.53;5259304;28;20034;-82
2022/06/04 08:30:45;;;;;;;7.15;6.72;;;;;;;18.70;100.00;101852.38;5259313;28;20076;-82
2022/06/04 08:33:16;;;;;;;7.65;7.10;;;;;;;18.44;100.00;101840.78;5259855;28;20024;-79
2022/06/04 08:35:46;;;;;;;8.35;7.70;;;;;;;18.67;100.00;101848.28;5258895;28;20027;-80
2022/06/04 08:38:16;;;;;;;8.02;7.32;;;;;;;18.91;100.00;101874.91;5258505;28;20040;-82
2022/06/04 08:40:55;;;;;;;6.35;5.80;;;;;;;18.73;100.00;101871.78;5259785;28;20023;-81
2022/06/04 08:43:41;;;;;;;8.98;8.38;;;;;;;18.71;100.00;101871.25;5258690;28;20035;-80
2022/06/04 08:46:32;;;;;;;8.65;8.05;;;;;;;18.59;100.00;101840.66;5259203;28;20032;-81
2022/06/04 08:49:11;;;;;;;7.22;6.63;;;;;;;18.77;100.00;101866.53;5259087;28;20067;-79
2022/06/04 08:51:44;;;;;;;8.38;7.78;;;;;;;18.54;100.00;101866.13;5258767;28;20032;-81
2022/06/04 08:57:32;;;;;;;9.15;8.43;;;;;;;18.36;100.00;101819.50;5260739;28;20063;-81
2022/06/04 09:00:09;;;;;;;7.82;7.32;;;;;;;18.56;100.00;101869.41;5259772;28;20025;-82
2022/06/04 09:02:42;;;;;;;9.05;8.35;;;;;;;18.55;100.00;101877.88;5259813;28;20025;-81
2022/06/04 09:05:24;;;;;;;7.05;6.55;;;;;;;18.25;100.00;101801.53;5260515;28;20066;-82
2022/06/04 09:08:01;;;;;;;7.88;7.28;;;;;;;18.79;100.00;101839.69;5261675;28;20118;-80
2022/06/04 09:10:40;;;;;;;9.90;8.90;;;;;;;19.19;100.00;101861.22;5259648;28;20112;-78
2022/06/04 09:13:23;;;;;;;10.52;7.78;;;;;;;19.25;100.00;101881.16;5263047;28;20032;-83
2022/06/04 09:15:57;;;;;;;7.40;6.90;;;;;;;18.99;100.00;101855.13;5263245;28;20028;-81
2022/06/04 09:18:35;;;;;;;7.88;7.38;;;;;;;18.79;100.00;101873.34;5260458;28;20024;-81
2022/06/04 09:21:09;;;;;;;9.15;8.45;;;;;;;18.85;100.00;101850.31;5259317;28;20039;-82
2022/06/04 09:23:47;;;;;;;8.68;7.82;;;;;;;18.97;100.00;101846.38;5258844;28;20032;-81
2022/06/04 09:26:36;;;;;;;8.65;7.82;;;;;;;19.52;100.00;101873.22;5257729;28;20024;-80
2022/06/04 09:29:37;;;;;;;9.07;8.40;;;;;;;19.59;100.00;101869.31;5264038;28;20035;-79
2022/06/04 09:32:49;;;;;;;10.65;9.20;;;;;;;19.63;100.00;101862.16;5263688;28;20450;-82
2022/06/04 09:35:28;;;;;;;10.45;9.00;;;;;;;19.77;100.00;101865.81;5263747;28;20074;-78
2022/06/04 09:37:59;;;;;;;16.50;9.52;;;;;;;19.30;100.00;101820.84;5266047;28;20024;-79
2022/06/04 09:40:33;;;;;;;10.27;9.43;;;;;;;19.49;100.00;101864.72;5262444;28;20034;-81
2022/06/04 09:43:16;;;;;;;11.00;10.00;;;;;;;19.37;100.00;101851.44;5262973;28;20025;-79
2022/06/04 09:45:53;;;;;;;10.38;8.50;;;;;;;19.75;100.00;101873.50;5263093;28;20029;-82
2022/06/04 09:48:33;;;;;;;7.75;7.20;;;;;;;20.11;100.00;101871.13;5262010;28;20441;-79
2022/06/04 09:51:15;;;;;;;9.82;9.02;;;;;;;20.37;100.00;101871.56;5260782;28;20479;-80
2022/06/04 09:53:49;;;;;;;9.40;8.68;;;;;;;20.31;100.00;101872.75;5264146;28;20021;-81
2022/06/04 09:56:29;;;;;;;11.20;8.50;;;;;;;20.29;100.00;101874.97;5265457;28;20024;-81
2022/06/04 09:59:19;;;;;;;9.73;8.73;;;;;;;20.06;100.00;101877.47;5264145;28;20024;-81
2022/06/04 10:01:57;;;;;;;10.38;9.43;;;;;;;19.76;100.00;101834.00;5263744;28;20036;-82
2022/06/04 10:05:02;;;;;;;9.85;8.95;;;;;;;20.04;100.00;101868.72;5263237;28;20657;-81
2022/06/04 10:07:37;;;;;;;14.82;9.07;;;;;;;20.29;100.00;101867.53;5260944;28;20028;-80
2022/06/04 10:10:17;;;;;;;8.93;8.02;;;;;;;20.40;100.00;101873.75;5263406;28;20060;-82
2022/06/04 10:15:41;;;;;;;9.52;8.43;;;;;;;20.74;100.00;101890.78;5264501;28;20410;-80
2022/06/04 10:18:18;;;;;;;8.10;7.60;;;;;;;20.84;100.00;101873.28;5262746;28;20024;-82
2022/06/04 10:21:06;;;;;;;10.27;9.45;;;;;;;21.53;100.00;101897.06;5262334;28;20107;-82
2022/06/04 10:23:45;;;;;;;10.43;9.43;;;;;;;21.68;100.00;101876.69;5265211;28;20020;-82
2022/06/04 10:26:37;;;;;;;9.32;8.38;;;;;;;22.13;100.00;101894.22;5269506;28;20029;-81
2022/06/04 10:29:14;;;;;;;9.70;8.77;;;;;;;22.22;100.00;101906.13;5264437;28;20016;-82
2022/06/04 10:32:08;;;;;;;9.65;8.80;;;;;;;22.37;100.00;101904.13;5263102;28;20036;-80
2022/06/04 10:34:45;;;;;;;10.65;9.00;;;;;;;22.58;100.00;101905.28;5261628;28;20100;-81
2022/06/04 10:37:22;;;;;;;8.55;8.02;;;;;;;22.39;100.00;101905.44;5263394;28;20112;-82
2022/06/04 10:40:20;;;;;;;13.68;12.15;;;;;;;21.87;100.00;101904.91;5263248;28;20039;-82
2022/06/04 10:43:33;;;;;;;10.55;9.75;;;;;;;21.78;100.00;101889.44;5264028;28;20024;-81
2022/06/04 10:46:17;;;;;;;10.77;8.65;;;;;;;21.91;100.00;101896.88;5249352;28;20048;-82
2022/06/04 10:49:07;;;;;;;10.75;8.80;;;;;;;22.24;100.00;101875.50;5263070;28;20021;-82
2022/06/04 10:51:58;;;;;;;10.65;9.90;;;;;;;22.11;100.00;101857.13;5263638;28;20047;-83
2022/06/04 10:54:53;;;;;;;10.35;9.55;;;;;;;21.98;100.00;101880.75;5262128;28;20055;-84
2022/06/04 10:57:43;;;;;;;10.60;9.88;;;;;;;21.35;100.00;101862.25;5262866;28;20039;-79
2022/06/04 11:00:30;;;;;;;10.70;9.35;;;;;;;21.63;100.00;101867.75;5274862;22;20093;-62
2022/06/04 11:03:05;;;;;;;10.93;10.23;;;;;;;22.02;100.00;101858.97;5228635;28;20033;-62
2022/06/04 11:05:45;;;;;;;11.30;10.20;;;;;;;22.16;100.00;101863.31;5210936;28;20114;-62
2022/06/04 11:08:29;;;;;;;10.13;9.23;;;;;;;22.25;100.00;101863.38;5211208;28;20128;-61
2022/06/04 11:11:03;;;;;;;11.98;11.00;;;;;;;22.17;100.00;101855.88;5210836;28;20492;-61
2022/06/04 11:13:42;;;;;;;15.50;10.43;;;;;;;22.27;100.00;101849.31;5210812;28;20362;-61
2022/06/04 11:16:48;;;;;;;11.40;10.27;;;;;;;22.23;100.00;101858.19;5211136;28;20136;-62
2022/06/04 11:19:24;;;;;;;14.13;10.43;;;;;;;22.44;100.00;101858.53;5224683;28;20502;-63
2022/06/04 11:22:08;;;;;;;12.00;11.10;;;;;;;22.43;100.00;101867.13;5210536;28;20053;-62
2022/06/04 11:28:11;;;;;;;10.35;9.48;;;;;;;22.64;100.00;101865.50;5228632;28;20063;-62
2022/06/04 11:31:14;;;;;;;11.18;10.38;;;;;;;22.86;100.00;101862.75;5210261;28;20029;-62
2022/06/04 11:34:08;;;;;;;11.30;10.45;;;;;;;23.08;100.00;101870.19;5210621;28;20457;-61
2022/06/04 11:37:00;;;;;;;11.07;9.98;;;;;;;23.06;100.00;101880.72;5188774;28;20048;-61
2022/06/04 11:40:01;;;;;;;11.75;10.77;;;;;;;22.85;100.00;101861.13;5210237;28;20082;-61
2022/06/04 11:42:37;;;;;;;16.73;10.63;;;;;;;22.99;100.00;101858.28;5210552;28;20028;-61
2022/06/04 11:45:36;;;;;;;11.40;10.73;;;;;;;22.91;100.00;101853.53;5210212;28;20071;-60
2022/06/04 11:48:35;;;;;;;11.57;10.57;;;;;;;22.88;100.00;101843.97;5228553;28;20025;-60
2022/06/04 11:51:24;;;;;;;10.80;9.88;;;;;;;23.05;100.00;101823.97;5227299;28;20029;-63
2022/06/04 11:54:20;;;;;;;23.73;10.98;;;;;;;23.34;100.00;101834.47;5227842;28;20025;-61
2022/06/04 11:57:12;;;;;;;10.75;9.85;;;;;;;23.31;100.00;101834.31;5210061;28;20031;-61
2022/06/04 11:59:58;;;;;;;12.68;8.95;;;;;;;23.42;100.00;101830.09;5210159;28;20089;-62
2022/06/04 12:02:49;;;;;;;9.82;8.98;;;;;;;23.62;100.00;101823.25;5227930;28;20040;-61
2022/06/04 12:05:55;;;;;;;7.53;6.82;;;;;;;23.92;100.00;101822.31;5169668;28;20040;-61
2022/06/04 12:08:30;;;;;;;10.05;9.15;;;;;;;24.27;96.66;101817.63;5192722;28;20036;-61
2022/06/04 12:11:18;;;;;;;12.15;11.02;;;;;;;24.13;96.18;101811.47;5210362;28;20127;-61
2022/06/04 12:14:09;;;;;;;13.30;9.82;;;;;;;23.93;97.88;101814.88;5228047;28;20032;-61
2022/06/04 12:16:47;;;;;;;12.02;9.70;;;;;;;24.06;98.71;101814.69;5210006;28;20037;-61
2022/06/04 12:25:19;;;;;;;9.48;8.93;;;;;;;24.04;98.57;101814.19;5226309;28;20440;-60
2022/06/04 12:27:59;;;;;;;10.68;9.88;;;;;;;24.19;97.59;101819.25;5240110;23;20045;-91